Time;durP1;ratioP1;P1;durP2;ratioP2;P2;SDS_P1;SDS_P2;PMS_P1;PMS_P2;Temp;Humidity;BMP_temperature;BMP_pressure;BME280_temperature;BME280_humidity;BME280_pressure;Samples;Min_cycle;Max_cycle;Signal;HPM_P1;HPM_P2
2023/04/19 00:00:38;;;;;;;1.53;1.07;;;;;;;10.89;99.52;64090.84;5052217;28;20295;-58
2023/04/19 00:03:04;;;;;;;1.27;1.10;;;;;;;10.75;100.00;64073.00;5051988;28;20241;-56
2023/04/19 00:05:30;;;;;;;1.47;1.30;;;;;;;10.87;100.00;64085.59;5051857;28;20552;-58
2023/04/19 00:07:56;;;;;;;2.80;1.03;;;;;;;10.47;100.00;64041.81;5051859;28;20239;-56
2023/04/19 00:10:22;;;;;;;1.57;1.27;;;;;;;10.17;100.00;64009.53;5051793;28;20193;-57
2023/04/19 00:12:48;;;;;;;1.20;1.00;;;;;;;9.94;100.00;63982.38;5051651;28;20296;-58
2023/04/19 00:15:13;;;;;;;1.20;1.10;;;;;;;9.98;100.00;63991.78;5051864;28;20269;-57
2023/04/19 00:17:39;;;;;;;2.13;1.30;;;;;;;10.00;100.00;63993.97;5051656;28;20205;-56
2023/04/19 00:20:05;;;;;;;1.43;1.20;;;;;;;10.16;100.00;64008.44;5051735;28;20247;-57
2023/04/19 00:22:31;;;;;;;4.03;1.10;;;;;;;10.28;100.00;64021.03;5051519;28;20659;-56
2023/04/19 00:24:56;;;;;;;1.97;1.40;;;;;;;10.30;100.00;64025.72;5051430;28;20287;-57
2023/04/19 00:27:22;;;;;;;1.50;1.10;;;;;;;10.31;100.00;64021.78;5051464;28;20666;-56
2023/04/19 00:29:48;;;;;;;1.20;1.10;;;;;;;10.35;100.00;64026.72;5051478;28;20690;-59
2023/04/19 00:32:14;;;;;;;3.43;1.20;;;;;;;10.46;100.00;64043.78;5051519;28;20254;-59
2023/04/19 00:34:40;;;;;;;3.13;1.30;;;;;;;10.46;100.00;64041.28;5051437;28;20220;-61
2023/04/19 00:37:07;;;;;;;3.00;1.33;;;;;;;10.53;100.00;64051.44;5051314;28;20189;-59
2023/04/19 00:39:32;;;;;;;2.83;1.30;;;;;;;10.42;100.00;64038.88;5051174;28;20252;-58
2023/04/19 00:41:58;;;;;;;1.50;1.40;;;;;;;10.37;100.00;64031.41;5033440;28;20319;-59
2023/04/19 00:44:24;;;;;;;2.20;1.40;;;;;;;10.24;100.00;64014.13;5033381;28;20202;-59
2023/04/19 00:46:50;;;;;;;1.50;1.40;;;;;;;10.10;100.00;64004.38;5051449;28;20189;-56
2023/04/19 00:49:19;;;;;;;2.00;1.27;;;;;;;9.91;100.00;63983.59;5051650;28;20583;-59
2023/04/19 00:51:46;;;;;;;2.50;1.20;;;;;;;9.85;100.00;63977.56;5049825;28;20245;-56
2023/04/19 00:54:14;;;;;;;2.63;1.30;;;;;;;9.79;100.00;63970.47;5051310;28;20217;-56
2023/04/19 00:56:39;;;;;;;0.97;0.83;;;;;;;9.64;100.00;63954.59;5051177;28;20189;-57
2023/04/19 00:59:05;;;;;;;1.30;1.03;;;;;;;9.75;100.00;63969.16;5050006;28;20225;-56
2023/04/19 01:01:33;;;;;;;1.07;0.93;;;;;;;9.71;100.00;63959.75;5051029;28;20212;-57
2023/04/19 01:04:00;;;;;;;1.33;1.00;;;;;;;9.87;100.00;63976.69;5051503;28;20216;-55
2023/04/19 01:06:27;;;;;;;1.43;0.97;;;;;;;9.88;100.00;63980.84;5050840;28;20197;-55
2023/04/19 01:08:53;;;;;;;1.10;0.83;;;;;;;9.76;100.00;63967.72;5050656;28;20240;-59
2023/04/19 01:11:18;;;;;;;1.77;0.80;;;;;;;9.91;100.00;63986.66;5050765;28;20235;-57
2023/04/19 01:13:44;;;;;;;1.33;0.83;;;;;;;10.10;100.00;64004.94;5050716;28;20212;-57
2023/04/19 01:16:10;;;;;;;1.17;0.97;;;;;;;10.26;100.00;64018.84;5050980;28;20198;-58
2023/04/19 01:18:38;;;;;;;4.40;2.67;;;;;;;10.30;100.00;64025.72;5050896;28;20213;-57
2023/04/19 01:21:04;;;;;;;1.90;1.40;;;;;;;10.40;100.00;64036.69;5049388;28;20647;-57
2023/04/19 01:23:30;;;;;;;1.60;1.50;;;;;;;10.50;100.00;64045.09;5050588;28;20228;-56
2023/04/19 01:25:55;;;;;;;7.13;3.73;;;;;;;10.31;100.00;64026.81;5032755;28;20626;-57
2023/04/19 01:28:21;;;;;;;2.87;1.83;;;;;;;10.42;100.00;64036.91;5050811;28;20624;-55
2023/04/19 01:30:49;;;;;;;2.80;1.67;;;;;;;10.09;100.00;64001.31;5051009;28;20181;-56
2023/04/19 01:33:15;;;;;;;1.73;1.43;;;;;;;10.06;100.00;64003.06;5050451;28;20233;-55
2023/04/19 01:35:41;;;;;;;1.17;1.07;;;;;;;10.09;100.00;64001.31;5049269;28;20186;-57
2023/04/19 01:38:06;;;;;;;1.17;1.10;;;;;;;10.04;100.00;63995.28;5050510;28;20744;-56
2023/04/19 01:40:32;;;;;;;1.70;1.40;;;;;;;9.97;100.00;63990.69;5050683;28;20239;-56
2023/04/19 01:42:57;;;;;;;1.80;1.40;;;;;;;9.99;100.00;63990.38;5050371;28;20220;-55
2023/04/19 01:45:23;;;;;;;2.03;1.30;;;;;;;9.86;100.00;63978.66;5050488;28;20228;-55
2023/04/19 01:47:48;;;;;;;1.77;1.20;;;;;;;9.78;100.00;63969.91;5050356;28;20632;-56
2023/04/19 01:50:14;;;;;;;1.70;1.13;;;;;;;9.58;100.00;63944.97;5050632;28;20217;-55
2023/04/19 01:52:39;;;;;;;1.17;1.07;;;;;;;9.55;100.00;63942.25;5050068;28;20699;-56
2023/04/19 01:55:05;;;;;;;1.73;1.10;;;;;;;9.61;100.00;63948.81;5050396;28;20186;-56
2023/04/19 01:57:30;;;;;;;1.40;1.23;;;;;;;9.55;100.00;63944.78;5050499;28;20765;-55
2023/04/19 01:59:56;;;;;;;2.17;1.30;;;;;;;9.48;100.00;63934.03;5050132;28;20601;-55
2023/04/19 02:02:22;;;;;;;15.80;10.47;;;;;;;9.46;100.00;63932.41;5050171;28;20231;-56
2023/04/19 02:04:48;;;;;;;8.60;4.20;;;;;;;9.47;100.00;63933.50;5050088;28;20587;-56
2023/04/19 02:07:13;;;;;;;4.77;1.87;;;;;;;9.44;100.00;63932.72;5032180;28;20185;-56
2023/04/19 02:09:38;;;;;;;2.10;1.33;;;;;;;9.45;100.00;63933.84;5032157;28;20239;-55
2023/04/19 02:12:04;;;;;;;2.27;1.33;;;;;;;9.48;100.00;63934.03;5052843;28;20223;-56
2023/04/19 02:14:30;;;;;;;1.73;1.60;;;;;;;9.39;100.00;63927.28;5053958;28;20252;-56
2023/04/19 02:16:56;;;;;;;6.13;2.00;;;;;;;9.24;100.00;63908.91;5053649;28;20202;-57
2023/04/19 02:19:22;;;;;;;1.90;1.50;;;;;;;9.08;100.00;63893.94;5053845;28;20209;-56
2023/04/19 02:21:47;;;;;;;2.63;1.90;;;;;;;9.07;100.00;63892.28;5053645;28;20194;-57
2023/04/19 02:24:13;;;;;;;2.33;1.80;;;;;;;8.99;100.00;63884.09;5053679;28;20576;-56
2023/04/19 02:26:39;;;;;;;2.90;1.93;;;;;;;9.03;100.00;63887.94;5053443;28;20675;-57
2023/04/19 02:29:05;;;;;;;1.90;1.60;;;;;;;9.19;100.00;63903.44;5053395;28;20264;-57
2023/04/19 02:31:31;;;;;;;2.47;1.80;;;;;;;9.26;100.00;63910.53;5053114;28;20686;-58
2023/04/19 02:33:56;;;;;;;3.83;2.00;;;;;;;9.17;100.00;63903.22;5053003;28;20217;-57
2023/04/19 02:36:21;;;;;;;3.03;2.20;;;;;;;9.19;100.00;63905.41;5053380;28;20263;-58
2023/04/19 02:38:47;;;;;;;4.00;2.93;;;;;;;9.16;100.00;63902.13;5053473;28;20522;-57
2023/04/19 02:41:13;;;;;;;2.20;2.00;;;;;;;9.22;100.00;63906.16;5053041;28;20189;-57
2023/04/19 02:43:39;;;;;;;2.10;1.87;;;;;;;9.14;100.00;63897.41;5053250;28;20213;-58
2023/04/19 02:46:04;;;;;;;1.93;1.70;;;;;;;9.14;100.00;63897.97;5052970;28;20267;-57
2023/04/19 02:48:30;;;;;;;2.20;1.67;;;;;;;9.11;100.00;63896.66;5053040;28;20224;-57
2023/04/19 02:50:55;;;;;;;2.50;1.90;;;;;;;9.20;100.00;63907.03;5053509;28;20240;-56
2023/04/19 02:53:20;;;;;;;3.03;2.40;;;;;;;9.08;100.00;63893.38;5052830;28;20619;-57
2023/04/19 02:55:46;;;;;;;2.17;1.97;;;;;;;9.08;100.00;63891.41;5053093;28;20557;-55
2023/04/19 02:58:12;;;;;;;2.87;2.20;;;;;;;9.10;100.00;63895.56;5053215;28;20646;-57
2023/04/19 03:00:37;;;;;;;2.60;2.40;;;;;;;9.08;100.00;63893.38;5052885;28;20246;-57
2023/04/19 03:03:03;;;;;;;4.77;2.47;;;;;;;9.01;100.00;63881.25;5052668;28;20221;-57
2023/04/19 03:05:29;;;;;;;2.47;2.27;;;;;;;9.05;100.00;63890.63;5052711;28;20242;-56
2023/04/19 03:07:54;;;;;;;3.40;2.53;;;;;;;8.99;100.00;63884.09;5052649;28;20684;-58
2023/04/19 03:10:20;;;;;;;3.30;2.20;;;;;;;8.90;100.00;63871.19;5052645;28;20205;-56
2023/04/19 03:12:45;;;;;;;2.93;2.40;;;;;;;8.66;100.00;63847.50;5061293;22;20751;-56
2023/04/19 03:15:11;;;;;;;4.43;2.70;;;;;;;8.98;100.00;63879.94;5071554;28;20738;-56
2023/04/19 03:17:36;;;;;;;2.60;2.40;;;;;;;8.94;100.00;63878.06;5071854;28;20205;-58
2023/04/19 03:20:05;;;;;;;2.43;2.23;;;;;;;9.00;100.00;63882.13;5052559;28;20177;-58
2023/04/19 03:22:30;;;;;;;2.47;2.27;;;;;;;8.98;100.00;63879.94;5051604;28;20190;-57
2023/04/19 03:24:56;;;;;;;2.27;2.07;;;;;;;8.97;100.00;63881.34;5052249;28;20209;-57
2023/04/19 03:27:21;;;;;;;2.53;2.30;;;;;;;8.85;100.00;63865.72;5052578;28;20239;-58
2023/04/19 03:29:46;;;;;;;4.93;2.70;;;;;;;9.00;100.00;63882.13;5052360;28;20199;-56
2023/04/19 03:32:12;;;;;;;3.87;2.97;;;;;;;8.93;100.00;63875.00;5052177;28;20699;-57
2023/04/19 03:34:37;;;;;;;2.77;2.43;;;;;;;8.94;100.00;63878.63;5052205;28;20233;-56
2023/04/19 03:37:03;;;;;;;5.77;3.07;;;;;;;8.93;100.00;63877.53;5052249;28;20192;-56
2023/04/19 03:39:28;;;;;;;3.30;2.80;;;;;;;8.85;100.00;63868.22;5052289;28;20217;-56
2023/04/19 03:41:53;;;;;;;2.90;2.50;;;;;;;8.87;100.00;63870.41;5052217;28;20185;-55
2023/04/19 03:44:19;;;;;;;5.30;3.70;;;;;;;8.84;100.00;63864.63;5052043;28;20270;-58
2023/04/19 03:46:45;;;;;;;6.80;3.87;;;;;;;8.87;100.00;63870.97;5052070;28;20269;-55
2023/04/19 03:49:10;;;;;;;5.83;4.40;;;;;;;8.93;100.00;63876.97;5050815;28;20217;-56
2023/04/19 03:51:36;;;;;;;3.13;2.77;;;;;;;8.69;100.00;63850.75;5052192;28;20672;-55
2023/04/19 03:54:01;;;;;;;3.93;3.40;;;;;;;8.59;100.00;63837.31;5052499;28;20217;-55
2023/04/19 03:56:27;;;;;;;5.13;3.20;;;;;;;8.68;100.00;63847.72;5051971;28;20650;-56
2023/04/19 03:58:52;;;;;;;3.30;3.00;;;;;;;8.59;100.00;63837.88;5052075;28;20221;-56
2023/04/19 04:01:19;;;;;;;3.93;3.00;;;;;;;8.53;100.00;63831.31;5051787;28;20660;-55
2023/04/19 04:03:44;;;;;;;6.50;4.27;;;;;;;8.55;100.00;63832.94;5051654;28;20224;-56
2023/04/19 04:06:10;;;;;;;5.43;4.53;;;;;;;8.66;100.00;63847.50;5051660;28;20264;-57
2023/04/19 04:08:35;;;;;;;5.00;3.73;;;;;;;8.63;100.00;63841.69;5051833;28;20209;-57
2023/04/19 04:11:01;;;;;;;7.63;5.00;;;;;;;8.70;100.00;63849.34;5051699;28;20182;-60
2023/04/19 04:13:26;;;;;;;11.47;7.37;;;;;;;8.87;100.00;63870.41;5051697;28;20730;-56
2023/04/19 04:15:53;;;;;;;4.10;3.60;;;;;;;8.81;100.00;63861.34;5033930;28;20571;-59
2023/04/19 04:18:18;;;;;;;6.77;4.37;;;;;;;8.81;100.00;63861.91;5051836;28;20286;-59
2023/04/19 04:20:44;;;;;;;5.47;3.37;;;;;;;8.77;100.00;63860.03;5017444;28;20647;-58
2023/04/19 04:23:09;;;;;;;4.27;3.40;;;;;;;8.76;100.00;63856.44;5050372;28;20759;-59
2023/04/19 04:25:36;;;;;;;4.93;3.00;;;;;;;8.71;100.00;63852.94;5051540;28;20698;-60
2023/04/19 04:28:03;;;;;;;4.70;2.87;;;;;;;8.60;100.00;63838.97;5051432;28;20236;-58
2023/04/19 04:30:29;;;;;;;2.83;2.60;;;;;;;8.45;100.00;63825.63;5051657;28;20237;-59
2023/04/19 04:32:56;;;;;;;3.63;2.43;;;;;;;8.54;100.00;63834.38;5051535;28;20621;-57
2023/04/19 04:35:22;;;;;;;3.47;3.03;;;;;;;8.51;100.00;63831.66;5051653;28;20224;-58
2023/04/19 04:37:48;;;;;;;3.80;2.87;;;;;;;9.30;100.00;63915.47;5051484;28;20193;-57
2023/04/19 04:40:14;;;;;;;3.83;3.33;;;;;;;9.76;100.00;63962.69;5033561;28;20618;-57
2023/04/19 04:42:41;;;;;;;8.13;4.40;;;;;;;10.67;100.00;64063.69;5051283;28;20276;-56
2023/04/19 04:45:09;;;;;;;8.87;5.30;;;;;;;11.29;100.00;64131.59;5051439;28;20189;-57
2023/04/19 04:47:35;;;;;;;4.77;3.00;;;;;;;11.08;100.00;64108.59;5051271;28;20205;-55
2023/04/19 04:50:01;;;;;;;4.07;3.33;;;;;;;9.79;100.00;63968.50;5033388;28;20556;-57
2023/04/19 04:52:27;;;;;;;3.20;2.90;;;;;;;9.32;100.00;63919.63;5051127;28;20223;-55
2023/04/19 04:54:52;;;;;;;3.37;2.90;;;;;;;9.09;100.00;63891.97;5051230;28;20217;-56
2023/04/19 04:57:17;;;;;;;3.47;2.93;;;;;;;9.14;100.00;63900.50;5051146;28;20585;-55
2023/04/19 04:59:43;;;;;;;4.93;3.70;;;;;;;8.95;100.00;63877.19;5050977;28;20590;-55
2023/04/19 05:02:08;;;;;;;3.77;2.80;;;;;;;8.90;100.00;63874.25;5051225;28;20225;-58
2023/04/19 05:04:34;;;;;;;5.77;3.80;;;;;;;8.87;100.00;63870.41;5050964;28;20729;-58
2023/04/19 05:07:00;;;;;;;3.13;2.83;;;;;;;8.87;100.00;63867.91;5051011;28;20272;-56
2023/04/19 05:09:25;;;;;;;4.20;3.03;;;;;;;8.84;100.00;63865.19;5050846;28;20217;-57
2023/04/19 05:11:50;;;;;;;4.57;3.10;;;;;;;8.86;100.00;63866.81;5050772;28;20213;-56
2023/04/19 05:14:16;;;;;;;4.57;3.87;;;;;;;8.68;100.00;63849.66;5050619;28;20699;-55
2023/04/19 05:16:41;;;;;;;4.80;3.53;;;;;;;8.74;100.00;63853.72;5050716;28;20656;-56
2023/04/19 05:19:07;;;;;;;6.00;3.73;;;;;;;8.69;100.00;63850.75;5050887;28;20296;-57
2023/04/19 05:21:33;;;;;;;6.53;3.90;;;;;;;8.66;100.00;63847.50;5050938;28;20566;-56
2023/04/19 05:23:59;;;;;;;6.87;3.97;;;;;;;8.74;100.00;63853.72;5051006;28;20267;-56
2023/04/19 05:26:25;;;;;;;5.70;4.10;;;;;;;8.71;100.00;63850.44;5050862;28;20604;-58
2023/04/19 05:28:50;;;;;;;9.70;4.30;;;;;;;8.68;100.00;63850.22;5050679;28;20248;-56
2023/04/19 05:31:16;;;;;;;6.40;3.67;;;;;;;8.79;100.00;63861.69;5016409;28;20648;-56
2023/04/19 05:33:41;;;;;;;5.90;4.03;;;;;;;8.90;100.00;63871.75;5050559;28;20221;-56
2023/04/19 05:36:07;;;;;;;4.90;3.80;;;;;;;8.90;100.00;63874.25;5050670;28;20209;-56
2023/04/19 05:38:32;;;;;;;5.73;3.27;;;;;;;8.92;100.00;63873.38;5050786;28;20308;-58
2023/04/19 05:40:58;;;;;;;5.07;3.87;;;;;;;8.93;100.00;63876.97;5050594;28;20193;-57
2023/04/19 05:43:24;;;;;;;6.77;4.63;;;;;;;8.86;100.00;63867.38;5050655;28;20322;-59
2023/04/19 05:45:49;;;;;;;5.03;3.80;;;;;;;8.93;100.00;63877.53;5049948;28;20181;-59
2023/04/19 05:48:14;;;;;;;6.67;3.77;;;;;;;8.95;100.00;63879.16;5050502;28;20244;-57
2023/04/19 05:50:40;;;;;;;3.60;3.00;;;;;;;8.98;100.00;63882.44;5050287;28;20663;-58
2023/04/19 05:53:05;;;;;;;4.73;3.73;;;;;;;9.02;100.00;63884.31;5050148;28;20675;-58
2023/04/19 05:55:31;;;;;;;4.93;3.90;;;;;;;9.09;100.00;63895.00;5050359;28;20194;-57
2023/04/19 05:57:57;;;;;;;4.13;3.53;;;;;;;9.04;100.00;63883.97;5050228;28;20241;-57
2023/04/19 06:00:23;;;;;;;8.20;4.57;;;;;;;9.09;100.00;63891.97;5032396;28;20196;-58
2023/04/19 06:02:48;;;;;;;5.63;3.67;;;;;;;9.18;100.00;63902.34;5050153;28;20786;-57
2023/04/19 06:05:14;;;;;;;5.50;3.67;;;;;;;9.07;100.00;63892.28;5050112;28;20196;-57
2023/04/19 06:07:39;;;;;;;6.43;4.00;;;;;;;9.10;100.00;63895.56;5050188;28;20276;-58
2023/04/19 06:10:06;;;;;;;8.10;4.37;;;;;;;9.00;100.00;63882.69;5050017;28;20189;-60
2023/04/19 06:12:31;;;;;;;5.17;4.03;;;;;;;9.03;100.00;63885.41;5049830;28;20221;-58
2023/04/19 06:14:57;;;;;;;4.90;3.83;;;;;;;9.08;100.00;63890.88;5049861;28;20213;-58
2023/04/19 06:17:24;;;;;;;6.83;4.40;;;;;;;9.04;100.00;63887.03;5049919;28;20632;-58
2023/04/19 06:19:53;;;;;;;5.77;3.93;;;;;;;9.19;100.00;63905.41;5049685;28;20224;-58
2023/04/19 06:22:20;;;;;;;5.23;3.73;;;;;;;9.41;100.00;63926.94;5049858;28;20715;-58
2023/04/19 06:24:47;;;;;;;6.13;4.33;;;;;;;9.43;100.00;63926.63;5049641;28;20675;-58
2023/04/19 06:27:15;;;;;;;5.63;3.70;;;;;;;9.43;100.00;63931.09;5031828;28;20190;-58
2023/04/19 06:29:40;;;;;;;3.67;3.23;;;;;;;9.36;100.00;63923.97;5049570;28;20233;-58
2023/04/19 06:32:06;;;;;;;4.27;3.60;;;;;;;9.53;100.00;63937.56;5049548;28;20256;-57
2023/04/19 06:34:31;;;;;;;4.93;3.87;;;;;;;9.62;100.00;63949.91;5049420;28;20707;-59
2023/04/19 06:36:57;;;;;;;5.70;4.33;;;;;;;9.71;100.00;63959.19;5049766;28;20197;-55
2023/04/19 06:39:22;;;;;;;5.93;4.07;;;;;;;9.79;100.00;63968.50;5049629;28;20294;-55
2023/04/19 06:41:48;;;;;;;6.27;4.50;;;;;;;9.98;100.00;63986.75;5049611;28;20255;-55
2023/04/19 06:44:13;;;;;;;6.60;4.77;;;;;;;9.88;100.00;63975.81;5049525;28;20587;-57
2023/04/19 06:46:38;;;;;;;7.60;4.30;;;;;;;9.79;100.00;63970.47;5049660;28;20200;-56
2023/04/19 06:49:11;;;;;;;6.47;4.10;;;;;;;9.74;100.00;63964.97;5031960;28;20214;-58
2023/04/19 06:51:38;;;;;;;5.63;4.20;;;;;;;9.79;100.00;63971.00;5049512;28;20549;-59
2023/04/19 06:54:04;;;;;;;4.83;4.00;;;;;;;10.08;100.00;63999.66;5049805;28;20222;-58
2023/04/19 06:56:46;;;;;;;4.87;3.97;;;;;;;10.08;100.00;63997.69;5049571;28;20718;-55
2023/04/19 06:59:19;;;;;;;5.53;4.43;;;;;;;10.28;100.00;64023.53;5052469;28;20240;-56
2023/04/19 07:01:46;;;;;;;5.90;3.63;;;;;;;10.66;100.00;64060.66;5052901;28;20224;-56
2023/04/19 07:04:12;;;;;;;6.40;3.83;;;;;;;10.67;100.00;64066.22;5052699;28;20209;-56
2023/04/19 07:06:38;;;;;;;5.83;4.23;;;;;;;10.72;100.00;64071.69;5052772;28;20197;-55
2023/04/19 07:09:05;;;;;;;5.00;3.77;;;;;;;10.86;100.00;64084.50;5053095;28;20263;-57
2023/04/19 07:11:31;;;;;;;3.93;3.27;;;;;;;10.65;100.00;64062.06;5052424;28;20197;-56
2023/04/19 07:13:57;;;;;;;4.40;3.13;;;;;;;10.64;100.00;64058.47;5052313;28;20292;-56
2023/04/19 07:16:22;;;;;;;4.03;3.33;;;;;;;10.64;100.00;64057.91;5052487;28;20612;-55
2023/04/19 07:18:48;;;;;;;4.87;3.43;;;;;;;10.58;100.00;64056.38;5052704;28;20213;-55
2023/04/19 07:21:14;;;;;;;4.70;3.43;;;;;;;10.91;100.00;64092.50;5052651;28;20193;-56
2023/04/19 07:23:40;;;;;;;4.60;3.80;;;;;;;10.97;99.15;64096.53;5052591;28;20228;-57
2023/04/19 07:26:06;;;;;;;4.13;3.47;;;;;;;10.86;99.65;64084.50;5052405;28;20269;-56
2023/04/19 07:28:32;;;;;;;4.97;3.60;;;;;;;10.84;99.72;64082.31;5052467;28;20218;-55
2023/04/19 07:30:59;;;;;;;4.70;3.63;;;;;;;10.98;99.17;64097.66;5052444;28;20190;-56
2023/04/19 07:33:25;;;;;;;4.37;3.57;;;;;;;10.92;99.00;64091.63;5052370;28;20221;-54
2023/04/19 07:35:51;;;;;;;6.77;3.70;;;;;;;11.18;97.86;64119.53;5052343;28;20251;-56
2023/04/19 07:38:16;;;;;;;4.03;3.47;;;;;;;11.25;97.06;64127.19;5052359;28;20682;-62
2023/04/19 07:40:42;;;;;;;6.80;3.30;;;;;;;11.06;98.06;64106.41;5052245;28;20209;-58
2023/04/19 07:43:07;;;;;;;6.30;3.77;;;;;;;10.93;98.35;64092.16;5052014;28;20220;-59
2023/04/19 07:45:32;;;;;;;5.90;3.67;;;;;;;10.80;99.09;64080.47;5052092;28;20620;-55
2023/04/19 07:47:58;;;;;;;4.10;3.53;;;;;;;10.78;98.76;64075.75;5050683;28;20210;-55
2023/04/19 07:50:27;;;;;;;3.97;2.83;;;;;;;10.80;98.51;64080.47;5052117;28;20676;-56
2023/04/19 07:52:53;;;;;;;4.17;2.90;;;;;;;11.01;98.24;64102.91;5051883;28;20296;-57
2023/04/19 07:55:19;;;;;;;3.87;2.90;;;;;;;11.01;97.90;64098.41;5034432;28;20189;-59
2023/04/19 07:57:47;;;;;;;3.93;2.80;;;;;;;11.06;97.80;64106.41;5052145;28;20280;-57
2023/04/19 08:00:14;;;;;;;6.53;3.50;;;;;;;10.85;98.81;64085.91;5034157;28;20189;-55
2023/04/19 08:02:44;;;;;;;3.33;2.77;;;;;;;10.86;97.83;64082.00;5051929;28;20202;-56
2023/04/19 08:05:11;;;;;;;4.20;3.30;;;;;;;10.86;98.56;64084.50;5034040;28;20683;-57
2023/04/19 08:07:37;;;;;;;3.50;3.07;;;;;;;10.76;98.99;64076.09;5051781;28;20236;-55
2023/04/19 08:10:04;;;;;;;4.70;3.20;;;;;;;10.81;99.20;64076.50;5051658;28;20186;-55
2023/04/19 08:12:29;;;;;;;5.17;3.37;;;;;;;10.95;99.12;64094.34;5051669;28;20229;-58
2023/04/19 08:14:55;;;;;;;5.27;4.23;;;;;;;11.06;99.30;64108.94;5051768;28;20244;-56
2023/04/19 08:17:22;;;;;;;7.00;4.73;;;;;;;11.79;97.15;64186.41;5051614;28;20255;-56
2023/04/19 08:19:48;;;;;;;6.03;3.77;;;;;;;11.46;94.95;64152.75;5051807;28;20209;-55
2023/04/19 08:22:15;;;;;;;3.50;3.00;;;;;;;11.05;96.73;64105.31;5051569;28;20237;-57
2023/04/19 08:24:41;;;;;;;5.97;3.60;;;;;;;11.49;96.77;64152.97;5051453;28;20217;-57
2023/04/19 08:27:08;;;;;;;6.47;3.57;;;;;;;11.16;96.77;64119.88;5051530;28;20177;-55
2023/04/19 08:29:33;;;;;;;3.63;2.67;;;;;;;11.15;95.73;64116.25;5051222;28;20703;-56
2023/04/19 08:32:00;;;;;;;3.47;2.97;;;;;;;11.19;95.82;64123.16;5033413;28;20240;-58
2023/04/19 08:34:26;;;;;;;4.77;3.57;;;;;;;11.38;95.70;64141.44;5051354;28;20240;-55
2023/04/19 08:36:51;;;;;;;3.93;3.10;;;;;;;11.41;94.75;64142.22;5051342;28;20652;-59
2023/04/19 08:39:17;;;;;;;4.00;2.97;;;;;;;11.12;95.28;64115.50;5051566;28;20674;-58
2023/04/19 08:41:43;;;;;;;4.70;2.90;;;;;;;11.05;96.03;64105.31;5051078;28;20682;-59
2023/04/19 08:44:11;;;;;;;5.97;3.90;;;;;;;11.10;96.10;64110.22;5051247;28;20237;-59
2023/04/19 08:46:37;;;;;;;4.20;3.40;;;;;;;10.96;97.52;64092.94;5051088;28;20185;-58
2023/04/19 08:49:04;;;;;;;5.43;3.70;;;;;;;11.36;96.87;64136.19;5051275;28;20302;-60
2023/04/19 08:51:31;;;;;;;6.87;3.20;;;;;;;11.55;94.72;64160.06;5050971;28;20196;-60
2023/04/19 08:53:58;;;;;;;6.20;4.63;;;;;;;11.41;95.02;64144.19;5051107;28;20228;-59
2023/04/19 08:56:23;;;;;;;4.93;3.07;;;;;;;11.25;94.20;64127.19;5051166;28;20287;-59
2023/04/19 08:58:49;;;;;;;11.90;5.10;;;;;;;11.56;93.88;64161.16;5050850;28;20702;-59
2023/04/19 09:01:14;;;;;;;5.03;3.60;;;;;;;11.93;93.74;64203.16;5033287;28;20213;-60
2023/04/19 09:03:46;;;;;;;8.10;5.03;;;;;;;12.04;90.67;64212.72;5051188;28;20585;-58
2023/04/19 09:06:12;;;;;;;6.60;3.50;;;;;;;11.76;91.43;64185.06;5050922;28;20264;-64
2023/04/19 09:08:39;;;;;;;3.97;3.43;;;;;;;11.62;92.14;64169.72;5050995;28;20232;-59
2023/04/19 09:11:05;;;;;;;5.07;3.40;;;;;;;11.98;90.73;64206.13;5032811;28;20276;-58
2023/04/19 09:13:31;;;;;;;4.20;3.37;;;;;;;12.36;87.40;64245.78;5050787;28;20299;-59
2023/04/19 09:15:59;;;;;;;4.03;3.50;;;;;;;12.03;90.23;64211.59;5050725;28;20182;-59
2023/04/19 09:18:25;;;;;;;6.43;3.43;;;;;;;12.38;88.50;64250.53;5050458;28;20232;-59
2023/04/19 09:20:56;;;;;;;5.57;2.63;;;;;;;12.49;86.11;64265.13;5049574;28;20190;-58
2023/04/19 09:23:24;;;;;;;3.53;2.30;;;;;;;12.42;85.92;64254.38;5050402;28;20224;-59
2023/04/19 09:25:56;;;;;;;5.37;2.17;;;;;;;12.47;86.93;64260.41;5050499;28;20186;-58
2023/04/19 09:28:22;;;;;;;3.77;2.47;;;;;;;12.39;85.43;64254.16;5050381;28;20204;-59
2023/04/19 09:30:49;;;;;;;2.30;1.80;;;;;;;12.53;83.71;64264.44;5050543;28;20272;-59
2023/04/19 09:33:38;;;;;;;3.13;2.10;;;;;;;12.78;82.93;64293.31;5050469;28;20229;-59
2023/04/19 09:36:05;;;;;;;2.83;2.00;;;;;;;13.05;83.28;64322.94;5050220;28;20802;-60
2023/04/19 09:38:45;;;;;;;2.73;1.90;;;;;;;12.54;83.34;64265.53;5050253;28;20205;-59
2023/04/19 09:41:11;;;;;;;5.00;2.30;;;;;;;12.63;82.84;64279.91;5050275;28;20336;-59
2023/04/19 09:43:36;;;;;;;3.33;2.50;;;;;;;12.89;82.87;64305.91;5050422;28;20758;-60
2023/04/19 09:46:02;;;;;;;5.80;3.70;;;;;;;13.46;81.01;64367.94;5050260;28;20572;-59
2023/04/19 09:48:28;;;;;;;4.77;2.60;;;;;;;13.91;76.31;64414.28;5050499;28;20233;-58
2023/04/19 09:50:58;;;;;;;3.27;2.33;;;;;;;14.58;74.44;64487.91;5050372;28;20207;-60
2023/04/19 09:53:28;;;;;;;4.00;2.30;;;;;;;14.47;73.71;64477.78;5050355;28;20206;-59
2023/04/19 09:55:54;;;;;;;2.83;2.30;;;;;;;14.35;73.10;64462.06;5049978;28;20322;-60
2023/04/19 09:58:20;;;;;;;4.63;2.00;;;;;;;14.01;74.29;64427.78;5050341;28;20243;-56
2023/04/19 10:00:47;;;;;;;4.03;2.20;;;;;;;15.54;73.91;64594.88;5032368;28;20531;-58
2023/04/19 10:03:17;;;;;;;6.13;2.40;;;;;;;15.51;66.91;64591.59;5048860;28;20300;-58
2023/04/19 10:05:44;;;;;;;3.37;2.47;;;;;;;15.03;68.21;64537.34;5050186;28;20181;-60
2023/04/19 10:08:11;;;;;;;2.30;2.10;;;;;;;16.30;66.03;64675.97;5050342;28;20205;-60
2023/04/19 10:10:38;;;;;;;3.10;2.38;;;;;;;16.48;66.57;64695.78;5050179;28;20189;-60
2023/04/19 10:13:07;;;;;;;3.40;2.78;;;;;;;15.79;63.82;64620.41;5050101;28;20224;-60
2023/04/19 10:15:35;;;;;;;8.52;3.35;;;;;;;15.59;63.31;64597.84;5050177;28;20236;-58
2023/04/19 10:18:03;;;;;;;3.65;2.08;;;;;;;15.35;64.07;64574.50;5049675;28;20216;-60
2023/04/19 10:20:42;;;;;;;3.28;2.10;;;;;;;15.32;64.68;64568.13;5049783;28;20682;-62
2023/04/19 10:23:10;;;;;;;3.00;2.10;;;;;;;15.71;64.07;64608.53;5050125;28;20213;-60
2023/04/19 10:25:37;;;;;;;1.92;1.80;;;;;;;15.72;62.84;64615.25;5049905;28;20186;-59
2023/04/19 10:28:03;;;;;;;5.57;3.95;;;;;;;15.42;64.58;64582.25;5049585;28;20219;-60
2023/04/19 10:30:28;;;;;;;3.35;2.08;;;;;;;16.08;64.36;64651.22;5049841;28;20660;-59
2023/04/19 10:32:56;;;;;;;4.22;1.90;;;;;;;17.26;61.71;64780.63;5052477;28;20210;-61
2023/04/19 10:35:24;;;;;;;2.15;1.95;;;;;;;16.48;61.47;64697.78;5053298;28;20182;-59
2023/04/19 10:38:05;;;;;;;5.13;2.20;;;;;;;16.20;62.26;64666.97;5053223;28;20267;-60
2023/04/19 10:40:49;;;;;;;3.28;2.00;;;;;;;15.89;63.28;64635.94;5053181;28;20231;-58
2023/04/19 10:43:16;;;;;;;2.42;2.20;;;;;;;16.88;64.19;64736.22;5034979;28;20762;-58
2023/04/19 10:45:42;;;;;;;3.08;1.80;;;;;;;16.71;58.88;64721.13;5053243;28;20188;-58
2023/04/19 10:48:34;;;;;;;3.10;1.73;;;;;;;17.22;57.00;64778.75;5053107;28;20204;-58
2023/04/19 10:51:02;;;;;;;2.72;2.08;;;;;;;16.76;58.45;64726.66;5053096;28;20182;-58
2023/04/19 10:53:58;;;;;;;1.73;1.52;;;;;;;15.89;58.93;64631.41;5053264;28;20239;-60
2023/04/19 10:56:32;;;;;;;1.90;1.52;;;;;;;15.56;61.16;64594.56;5053107;28;20185;-59
2023/04/19 10:59:01;;;;;;;1.65;1.45;;;;;;;16.14;60.22;64657.81;5035098;28;20217;-59
2023/04/19 11:01:47;;;;;;;2.92;2.35;;;;;;;16.78;59.15;64731.41;5053091;28;20248;-59
2023/04/19 11:04:17;;;;;;;1.90;1.80;;;;;;;17.01;57.50;64753.09;5034938;28;20737;-60
2023/04/19 11:06:52;;;;;;;2.00;1.65;;;;;;;17.07;55.72;64759.69;5052805;28;20186;-59
2023/04/19 11:09:33;;;;;;;3.55;2.15;;;;;;;16.59;57.54;64707.38;5052529;28;20291;-58
2023/04/19 11:12:00;;;;;;;1.83;1.30;;;;;;;17.39;56.24;64794.94;5033416;28;20213;-59
2023/04/19 11:14:26;;;;;;;1.88;1.67;;;;;;;17.95;54.15;64856.13;5052719;28;20209;-61
2023/04/19 11:16:52;;;;;;;2.78;1.80;;;;;;;17.02;54.93;64754.19;5052930;28;20197;-60
2023/04/19 11:19:18;;;;;;;3.00;2.30;;;;;;;17.66;55.13;64824.72;5052350;28;20220;-60
2023/04/19 11:21:48;;;;;;;5.78;1.90;;;;;;;16.64;56.75;64717.97;5052641;28;20185;-60
2023/04/19 11:24:17;;;;;;;2.65;2.45;;;;;;;17.46;54.13;64803.22;5052134;28;20240;-58
2023/04/19 11:26:50;;;;;;;2.97;2.40;;;;;;;16.01;56.34;64646.06;5052384;28;20693;-59
2023/04/19 11:29:15;;;;;;;2.55;2.30;;;;;;;16.27;56.84;64675.22;5052551;28;20219;-59